Limestone, Maine
Current Conditions -  °F | °C
As of 9:54 PM on Friday 31 Oct 2014 (Local Time) from KCAR Reporting Station
Overcast Overcast  
Wind Chill: 38°   Ceiling: 5500
Heat Index: 38°   Visibility: 10mi
Dew Point: 29°   Wind: 3mph
Humidity: 70%   Direction: 70°ENE
Pressure: 30.13"   Gusts: NA
Location:  46.91°N, 67.83°W
Report Text: KCAR 010154Z AUTO 07003KT 10SM OVC055 03/M02 A3013 RMK AO2 SLP211 T00331017
Loading
Personal Weather Stations






























Interactive Weather Map
Tropical Storm Tracking
New forecast layout! Learn more

10-Day Weather Forecast

Advertisements
Track Severe Weather on mobile